Pacific Dawn — 2AGH7 — position and weather

sailwx.info

Track history (hours):
 
Tides and Currents Weather Stations Pressure Air Temp Water Temp Dewpoint Dewpoint Depression Visibility Wind Speed Wind Dir Waves Ship Positions

Pacific Dawn

Last reported at 2019-Jun-15 10:14 UTC. Time now 2019-Jun-16 15:19 UTC.
Position S 26°34' E 153°38'.

Length 245 m; draft 8.4 m.

Type: Passenger vessel. MMSI: 235059368.

Date/timePositionNaut miles runAvg speedWind from/ knotsBaromVisibWave heightAir tempDewpointWater temp
2019-Jun-15 10:14S 26°34' E 153°38'619.8
2019-Jun-15 09:55S 26°36' E 153°32'819.4
2019-Jun-15 09:30S 26°39' E 153°24'918.0
2019-Jun-15 09:00S 26°42' E 153°14'710.7
2019-Jun-15 08:20S 26°48' E 153°11'413.3
2019-Jun-15 08:01S 26°52' E 153°10'816.1
2019-Jun-15 07:31S 26°60' E 153°14'714.5
2019-Jun-15 07:01S 27°05' E 153°19'714.5
2019-Jun-15 06:30S 27°13' E 153°20'815.6
2019-Jun-15 06:01S 27°17' E 153°14'612.7
2019-Jun-15 05:30S 27°23' E 153°10'4 7.2
2019-Jun-15 05:00S 27°26' E 153°07'3 5.6
2019-Jun-15 04:31S 27°27' E 153°04'0 0.6
2019-Jun-15 04:00S 27°26' E 153°04'0 0.0
2019-Jun-15 03:30S 27°26' E 153°04'0 0.0
2019-Jun-15 03:00S 27°26' E 153°04'0 0.0
2019-Jun-15 02:30S 27°26' E 153°04'0 0.0
2019-Jun-15 02:00S 27°26' E 153°04'0 0.0
2019-Jun-15 01:30S 27°26' E 153°04'0 0.0
2019-Jun-15 01:00S 27°26' E 153°04'0 0.0
2019-Jun-15 00:30S 27°26' E 153°04'0 0.0
2019-Jun-15 00:00S 27°26' E 153°04'0 0.0
2019-Jun-14 23:30S 27°26' E 153°04'0 0.0
2019-Jun-14 23:00S 27°26' E 153°04'0 0.0
2019-Jun-14 22:30S 27°26' E 153°04'0 0.0
2019-Jun-14 22:00S 27°26' E 153°04'0 0.0
2019-Jun-14 21:30S 27°26' E 153°04'0 0.0
2019-Jun-14 21:00S 27°26' E 153°04'0 0.0
2019-Jun-14 20:30S 27°26' E 153°04'0 0.0
2019-Jun-14 20:00S 27°26' E 153°04'0 0.1
2019-Jun-14 19:30S 27°27' E 153°04'2 4.8
2019-Jun-14 19:00S 27°26' E 153°07'4 7.5
2019-Jun-14 18:30S 27°23' E 153°09'510.6
2019-Jun-14 18:00S 27°19' E 153°12'816.7
2019-Jun-14 17:30S 27°14' E 153°20'816.5
2019-Jun-14 17:00S 27°06' E 153°19'816.0
2019-Jun-14 16:30S 26°59' E 153°14'816.8
2019-Jun-14 16:00S 26°52' E 153°09'6 9.1
2019-Jun-14 15:20S 26°46' E 153°11'410.3
2019-Jun-14 14:55S 26°42' E 153°11'513.0
2019-Jun-14 14:30S 26°40' E 153°17'714.0
2019-Jun-14 14:00S 26°38' E 153°24'713.6
2019-Jun-14 13:30S 26°36' E 153°32'714.5
2019-Jun-14 13:01S 26°31' E 153°37'714.6
2019-Jun-14 12:31S 26°26' E 153°43'713.7
2019-Jun-14 12:00S 26°22' E 153°49'815.5
2019-Jun-14 11:31S 26°18' E 153°57'40717.3
2019-Jun-13 12:00S 22°06' E 159°48'39318.7 110 / 251017.510.8 22.017.224.0
2019-Jun-12 15:00S 18°12' E 165°24'139 5.1 160 / 331014.410.8 23.019.926.0
2019-Jun-11 12:00S 19°12' E 167°36'197 8.2 180 / 201015.410.8 24.019.425.0
2019-Jun-10 11:59S 22°24' E 166°47'817.2
2019-Jun-10 11:30S 22°23' E 166°39'917.7
2019-Jun-10 11:00S 22°21' E 166°29'510.3
2019-Jun-10 10:31S 22°16' E 166°26'0 0.6
2019-Jun-10 09:59S 22°16' E 166°26'0 0.0
2019-Jun-10 09:29S 22°16' E 166°26'0 0.0
2019-Jun-10 08:59S 22°16' E 166°26'0 0.0
2019-Jun-10 08:29S 22°16' E 166°26'0 0.0
2019-Jun-10 07:59S 22°16' E 166°26'0 0.0
2019-Jun-10 07:29S 22°16' E 166°26'0 0.0
2019-Jun-10 06:53S 22°16' E 166°26'0 0.0
2019-Jun-10 06:29S 22°16' E 166°26'0 0.0
2019-Jun-10 05:59S 22°16' E 166°26'0 0.0
2019-Jun-10 05:29S 22°16' E 166°26'0 0.0
2019-Jun-10 04:59S 22°16' E 166°26'0 0.0
2019-Jun-10 04:29S 22°16' E 166°26'0 0.0
2019-Jun-10 03:59S 22°16' E 166°26'0 0.0
2019-Jun-10 03:29S 22°16' E 166°26'2 3.6
2019-Jun-10 03:00S 22°17' E 166°25'713.1
2019-Jun-10 02:30S 22°19' E 166°18'714.5
2019-Jun-10 02:01S 22°24' E 166°12'23416.7
2019-Jun-09 12:00S 23°42' E 162°12'51118.9 120 / 201019.510.8 22.017.224.1
2019-Jun-08 08:58S 26°39' E 153°22'817.3
2019-Jun-08 08:30S 26°43' E 153°14'612.7
2019-Jun-08 08:00S 26°48' E 153°11'714.2
2019-Jun-08 07:30S 26°55' E 153°12'917.2
2019-Jun-08 07:00S 27°03' E 153°17'815.3
2019-Jun-08 06:30S 27°09' E 153°21'816.4
2019-Jun-08 06:00S 27°16' E 153°16'317.2
2019-Jun-08 05:52S 27°17' E 153°13'514.2
2019-Jun-08 05:30S 27°22' E 153°10'4 8.9
2019-Jun-08 05:00S 27°25' E 153°08'3 6.6
2019-Jun-08 04:31S 27°27' E 153°04'0 0.8
2019-Jun-08 03:59S 27°26' E 153°04'0 0.0
2019-Jun-08 03:29S 27°26' E 153°04'0 0.0
2019-Jun-08 02:59S 27°26' E 153°04'0 0.0
2019-Jun-08 02:29S 27°26' E 153°04'0 0.0
2019-Jun-08 01:59S 27°26' E 153°04'0 0.0
2019-Jun-08 01:29S 27°26' E 153°04'0 0.0
2019-Jun-08 00:59S 27°26' E 153°04'0 0.0
2019-Jun-08 00:29S 27°26' E 153°04'0 0.0
2019-Jun-07 23:59S 27°26' E 153°04'0 0.0
2019-Jun-07 23:29S 27°26' E 153°04'0 0.0
2019-Jun-07 22:59S 27°26' E 153°04'0 0.0
2019-Jun-07 22:29S 27°26' E 153°04'0 0.0
2019-Jun-07 21:59S 27°26' E 153°04'0 0.0
2019-Jun-07 21:29S 27°26' E 153°04'0 0.0
2019-Jun-07 20:59S 27°26' E 153°04'0 0.0
2019-Jun-07 20:29S 27°26' E 153°04'0 0.0
2019-Jun-07 19:59S 27°26' E 153°04'0 0.1
2019-Jun-07 19:30S 27°26' E 153°04'3 5.0
2019-Jun-07 19:00S 27°26' E 153°07'3 6.9
2019-Jun-07 18:30S 27°23' E 153°09'510.9
2019-Jun-07 18:00S 27°19' E 153°12'816.2
2019-Jun-07 17:30S 27°14' E 153°20'815.2
2019-Jun-07 17:00S 27°06' E 153°20'815.2
2019-Jun-07 16:30S 27°01' E 153°15'816.3
2019-Jun-07 16:00S 26°53' E 153°10'1213.4
2019-Jun-07 15:07S 26°41' E 153°11'210.0
2019-Jun-07 14:54S 26°40' E 153°13'  
Track history (hours):
 
Tides and Currents Weather Stations Pressure Air Temp Water Temp Dewpoint Dewpoint Depression Visibility Wind Speed Wind Dir Waves Ship Positions

Pacific Dawn

Last reported at 2019-Jun-15 10:14 UTC. Time now 2019-Jun-16 15:19 UTC.
Position S 26°34' E 153°38'.

Length 245 m; draft 8.4 m.

Type: Passenger vessel. MMSI: 235059368.

Date/timePositionNaut miles runAvg speedWind from/ knotsBaromVisibWave heightAir tempDewpointWater temp
2019-Jun-15 10:14S 26°34' E 153°38'619.8
2019-Jun-15 09:55S 26°36' E 153°32'819.4
2019-Jun-15 09:30S 26°39' E 153°24'918.0
2019-Jun-15 09:00S 26°42' E 153°14'710.7
2019-Jun-15 08:20S 26°48' E 153°11'413.3
2019-Jun-15 08:01S 26°52' E 153°10'816.1
2019-Jun-15 07:31S 26°60' E 153°14'714.5
2019-Jun-15 07:01S 27°05' E 153°19'714.5
2019-Jun-15 06:30S 27°13' E 153°20'815.6
2019-Jun-15 06:01S 27°17' E 153°14'612.7
2019-Jun-15 05:30S 27°23' E 153°10'4 7.2
2019-Jun-15 05:00S 27°26' E 153°07'3 5.6
2019-Jun-15 04:31S 27°27' E 153°04'0 0.6
2019-Jun-15 04:00S 27°26' E 153°04'0 0.0
2019-Jun-15 03:30S 27°26' E 153°04'0 0.0
2019-Jun-15 03:00S 27°26' E 153°04'0 0.0
2019-Jun-15 02:30S 27°26' E 153°04'0 0.0
2019-Jun-15 02:00S 27°26' E 153°04'0 0.0
2019-Jun-15 01:30S 27°26' E 153°04'0 0.0
2019-Jun-15 01:00S 27°26' E 153°04'0 0.0
2019-Jun-15 00:30S 27°26' E 153°04'0 0.0
2019-Jun-15 00:00S 27°26' E 153°04'0 0.0
2019-Jun-14 23:30S 27°26' E 153°04'0 0.0
2019-Jun-14 23:00S 27°26' E 153°04'0 0.0
2019-Jun-14 22:30S 27°26' E 153°04'0 0.0
2019-Jun-14 22:00S 27°26' E 153°04'0 0.0
2019-Jun-14 21:30S 27°26' E 153°04'0 0.0
2019-Jun-14 21:00S 27°26' E 153°04'0 0.0
2019-Jun-14 20:30S 27°26' E 153°04'0 0.0
2019-Jun-14 20:00S 27°26' E 153°04'0 0.1
2019-Jun-14 19:30S 27°27' E 153°04'2 4.8
2019-Jun-14 19:00S 27°26' E 153°07'4 7.5
2019-Jun-14 18:30S 27°23' E 153°09'510.6
2019-Jun-14 18:00S 27°19' E 153°12'816.7
2019-Jun-14 17:30S 27°14' E 153°20'816.5
2019-Jun-14 17:00S 27°06' E 153°19'816.0
2019-Jun-14 16:30S 26°59' E 153°14'816.8
2019-Jun-14 16:00S 26°52' E 153°09'6 9.1
2019-Jun-14 15:20S 26°46' E 153°11'410.3
2019-Jun-14 14:55S 26°42' E 153°11'513.0
2019-Jun-14 14:30S 26°40' E 153°17'714.0
2019-Jun-14 14:00S 26°38' E 153°24'713.6
2019-Jun-14 13:30S 26°36' E 153°32'714.5
2019-Jun-14 13:01S 26°31' E 153°37'714.6
2019-Jun-14 12:31S 26°26' E 153°43'713.7
2019-Jun-14 12:00S 26°22' E 153°49'815.5
2019-Jun-14 11:31S 26°18' E 153°57'40717.3
2019-Jun-13 12:00S 22°06' E 159°48'39318.7 110 / 251017.510.8 22.017.224.0
2019-Jun-12 15:00S 18°12' E 165°24'139 5.1 160 / 331014.410.8 23.019.926.0
2019-Jun-11 12:00S 19°12' E 167°36'197 8.2 180 / 201015.410.8 24.019.425.0
2019-Jun-10 11:59S 22°24' E 166°47'817.2
2019-Jun-10 11:30S 22°23' E 166°39'917.7
2019-Jun-10 11:00S 22°21' E 166°29'510.3
2019-Jun-10 10:31S 22°16' E 166°26'0 0.6
2019-Jun-10 09:59S 22°16' E 166°26'0 0.0
2019-Jun-10 09:29S 22°16' E 166°26'0 0.0
2019-Jun-10 08:59S 22°16' E 166°26'0 0.0
2019-Jun-10 08:29S 22°16' E 166°26'0 0.0
2019-Jun-10 07:59S 22°16' E 166°26'0 0.0
2019-Jun-10 07:29S 22°16' E 166°26'0 0.0
2019-Jun-10 06:53S 22°16' E 166°26'0 0.0
2019-Jun-10 06:29S 22°16' E 166°26'0 0.0
2019-Jun-10 05:59S 22°16' E 166°26'0 0.0
2019-Jun-10 05:29S 22°16' E 166°26'0 0.0
2019-Jun-10 04:59S 22°16' E 166°26'0 0.0
2019-Jun-10 04:29S 22°16' E 166°26'0 0.0
2019-Jun-10 03:59S 22°16' E 166°26'0 0.0
2019-Jun-10 03:29S 22°16' E 166°26'2 3.6
2019-Jun-10 03:00S 22°17' E 166°25'713.1
2019-Jun-10 02:30S 22°19' E 166°18'714.5
2019-Jun-10 02:01S 22°24' E 166°12'23416.7
2019-Jun-09 12:00S 23°42' E 162°12'51118.9 120 / 201019.510.8 22.017.224.1
2019-Jun-08 08:58S 26°39' E 153°22'817.3
2019-Jun-08 08:30S 26°43' E 153°14'612.7
2019-Jun-08 08:00S 26°48' E 153°11'714.2
2019-Jun-08 07:30S 26°55' E 153°12'917.2
2019-Jun-08 07:00S 27°03' E 153°17'815.3
2019-Jun-08 06:30S 27°09' E 153°21'816.4
2019-Jun-08 06:00S 27°16' E 153°16'317.2
2019-Jun-08 05:52S 27°17' E 153°13'514.2
2019-Jun-08 05:30S 27°22' E 153°10'4 8.9
2019-Jun-08 05:00S 27°25' E 153°08'3 6.6
2019-Jun-08 04:31S 27°27' E 153°04'0 0.8
2019-Jun-08 03:59S 27°26' E 153°04'0 0.0
2019-Jun-08 03:29S 27°26' E 153°04'0 0.0
2019-Jun-08 02:59S 27°26' E 153°04'0 0.0
2019-Jun-08 02:29S 27°26' E 153°04'0 0.0
2019-Jun-08 01:59S 27°26' E 153°04'0 0.0
2019-Jun-08 01:29S 27°26' E 153°04'0 0.0
2019-Jun-08 00:59S 27°26' E 153°04'0 0.0
2019-Jun-08 00:29S 27°26' E 153°04'0 0.0
2019-Jun-07 23:59S 27°26' E 153°04'0 0.0
2019-Jun-07 23:29S 27°26' E 153°04'0 0.0
2019-Jun-07 22:59S 27°26' E 153°04'0 0.0
2019-Jun-07 22:29S 27°26' E 153°04'0 0.0
2019-Jun-07 21:59S 27°26' E 153°04'0 0.0
2019-Jun-07 21:29S 27°26' E 153°04'0 0.0
2019-Jun-07 20:59S 27°26' E 153°04'0 0.0
2019-Jun-07 20:29S 27°26' E 153°04'0 0.0
2019-Jun-07 19:59S 27°26' E 153°04'0 0.1
2019-Jun-07 19:30S 27°26' E 153°04'3 5.0
2019-Jun-07 19:00S 27°26' E 153°07'3 6.9
2019-Jun-07 18:30S 27°23' E 153°09'510.9
2019-Jun-07 18:00S 27°19' E 153°12'816.2
2019-Jun-07 17:30S 27°14' E 153°20'815.2
2019-Jun-07 17:00S 27°06' E 153°20'815.2
2019-Jun-07 16:30S 27°01' E 153°15'816.3
2019-Jun-07 16:00S 26°53' E 153°10'1213.4
2019-Jun-07 15:07S 26°41' E 153°11'210.0
2019-Jun-07 14:54S 26°40' E 153°13'  

Dump ship's entire track history